sensor_id;sensor_type;location;lat;lon;timestamp;P1;durP1;ratioP1;P2;durP2;ratioP2
54897;SDS011;40800;52.704;6.398;2023-04-09T00:01:02;96.07;;;82.88;;
54897;SDS011;40800;52.704;6.398;2023-04-09T00:03:31;97.80;;;82.53;;
54897;SDS011;40800;52.704;6.398;2023-04-09T00:05:58;90.13;;;80.23;;
54897;SDS011;40800;52.704;6.398;2023-04-09T00:08:23;94.28;;;82.47;;
54897;SDS011;40800;52.704;6.398;2023-04-09T00:10:49;92.65;;;80.07;;
54897;SDS011;40800;52.704;6.398;2023-04-09T00:13:15;98.43;;;80.10;;
54897;SDS011;40800;52.704;6.398;2023-04-09T00:15:42;90.20;;;80.43;;
54897;SDS011;40800;52.704;6.398;2023-04-09T00:18:08;87.38;;;78.07;;
54897;SDS011;40800;52.704;6.398;2023-04-09T00:20:33;85.38;;;76.18;;
54897;SDS011;40800;52.704;6.398;2023-04-09T00:22:59;82.93;;;73.95;;
54897;SDS011;40800;52.704;6.398;2023-04-09T00:25:24;77.05;;;69.05;;
54897;SDS011;40800;52.704;6.398;2023-04-09T00:27:50;77.15;;;69.03;;
54897;SDS011;40800;52.704;6.398;2023-04-09T00:30:16;78.53;;;70.32;;
54897;SDS011;40800;52.704;6.398;2023-04-09T00:32:41;79.93;;;71.50;;
54897;SDS011;40800;52.704;6.398;2023-04-09T00:35:07;76.15;;;68.15;;
54897;SDS011;40800;52.704;6.398;2023-04-09T00:37:33;79.75;;;71.47;;
54897;SDS011;40800;52.704;6.398;2023-04-09T00:39:58;75.55;;;67.75;;
54897;SDS011;40800;52.704;6.398;2023-04-09T00:42:24;74.95;;;67.22;;
54897;SDS011;40800;52.704;6.398;2023-04-09T00:44:50;78.72;;;70.57;;
54897;SDS011;40800;52.704;6.398;2023-04-09T00:47:16;76.78;;;68.47;;
54897;SDS011;40800;52.704;6.398;2023-04-09T00:49:42;76.65;;;68.78;;
54897;SDS011;40800;52.704;6.398;2023-04-09T00:52:08;78.68;;;70.13;;
54897;SDS011;40800;52.704;6.398;2023-04-09T00:54:34;78.95;;;70.55;;
54897;SDS011;40800;52.704;6.398;2023-04-09T00:57:00;77.28;;;69.00;;
54897;SDS011;40800;52.704;6.398;2023-04-09T00:59:26;79.82;;;70.90;;
54897;SDS011;40800;52.704;6.398;2023-04-09T01:01:52;79.05;;;69.82;;
54897;SDS011;40800;52.704;6.398;2023-04-09T01:04:18;78.38;;;69.70;;
54897;SDS011;40800;52.704;6.398;2023-04-09T01:06:47;77.93;;;69.63;;
54897;SDS011;40800;52.704;6.398;2023-04-09T01:09:32;77.90;;;69.65;;
54897;SDS011;40800;52.704;6.398;2023-04-09T01:17:23;78.57;;;70.05;;
54897;SDS011;40800;52.704;6.398;2023-04-09T01:20:02;74.97;;;67.18;;
54897;SDS011;40800;52.704;6.398;2023-04-09T01:25:28;73.43;;;65.85;;
54897;SDS011;40800;52.704;6.398;2023-04-09T01:28:11;72.50;;;65.13;;
54897;SDS011;40800;52.704;6.398;2023-04-09T01:30:44;69.65;;;62.47;;
54897;SDS011;40800;52.704;6.398;2023-04-09T01:33:12;68.72;;;61.88;;
54897;SDS011;40800;52.704;6.398;2023-04-09T01:35:40;68.95;;;61.83;;
54897;SDS011;40800;52.704;6.398;2023-04-09T01:38:07;66.60;;;59.63;;
54897;SDS011;40800;52.704;6.398;2023-04-09T01:43:00;66.82;;;60.05;;
54897;SDS011;40800;52.704;6.398;2023-04-09T01:45:27;66.63;;;59.80;;
54897;SDS011;40800;52.704;6.398;2023-04-09T01:47:53;70.38;;;63.58;;
54897;SDS011;40800;52.704;6.398;2023-04-09T01:50:20;68.57;;;61.55;;
54897;SDS011;40800;52.704;6.398;2023-04-09T01:52:46;67.63;;;60.70;;
54897;SDS011;40800;52.704;6.398;2023-04-09T01:55:12;67.88;;;60.95;;
54897;SDS011;40800;52.704;6.398;2023-04-09T01:57:37;66.75;;;59.95;;
54897;SDS011;40800;52.704;6.398;2023-04-09T02:00:04;64.85;;;58.33;;
54897;SDS011;40800;52.704;6.398;2023-04-09T02:02:41;67.10;;;60.70;;
54897;SDS011;40800;52.704;6.398;2023-04-09T02:05:18;66.82;;;60.15;;
54897;SDS011;40800;52.704;6.398;2023-04-09T02:07:48;67.10;;;60.35;;
54897;SDS011;40800;52.704;6.398;2023-04-09T02:10:20;68.60;;;61.72;;
54897;SDS011;40800;52.704;6.398;2023-04-09T02:12:49;67.03;;;60.42;;
54897;SDS011;40800;52.704;6.398;2023-04-09T02:15:16;67.88;;;60.90;;
54897;SDS011;40800;52.704;6.398;2023-04-09T02:17:44;68.18;;;61.35;;
54897;SDS011;40800;52.704;6.398;2023-04-09T02:20:09;66.88;;;60.42;;
54897;SDS011;40800;52.704;6.398;2023-04-09T02:22:36;65.85;;;59.33;;
54897;SDS011;40800;52.704;6.398;2023-04-09T02:25:02;67.30;;;60.17;;
54897;SDS011;40800;52.704;6.398;2023-04-09T02:27:28;66.43;;;59.72;;
54897;SDS011;40800;52.704;6.398;2023-04-09T02:29:54;63.50;;;57.13;;
54897;SDS011;40800;52.704;6.398;2023-04-09T02:32:19;65.45;;;58.63;;
54897;SDS011;40800;52.704;6.398;2023-04-09T02:34:45;65.85;;;59.35;;
54897;SDS011;40800;52.704;6.398;2023-04-09T02:37:10;65.22;;;58.90;;
54897;SDS011;40800;52.704;6.398;2023-04-09T02:39:36;67.25;;;60.58;;
54897;SDS011;40800;52.704;6.398;2023-04-09T02:42:01;65.78;;;59.35;;
54897;SDS011;40800;52.704;6.398;2023-04-09T02:44:27;66.90;;;60.33;;
54897;SDS011;40800;52.704;6.398;2023-04-09T02:46:53;66.68;;;60.40;;
54897;SDS011;40800;52.704;6.398;2023-04-09T02:49:18;66.32;;;59.83;;
54897;SDS011;40800;52.704;6.398;2023-04-09T02:51:44;67.60;;;60.97;;
54897;SDS011;40800;52.704;6.398;2023-04-09T02:54:09;65.05;;;58.72;;
54897;SDS011;40800;52.704;6.398;2023-04-09T02:56:35;66.22;;;59.70;;
54897;SDS011;40800;52.704;6.398;2023-04-09T02:59:00;69.57;;;62.97;;
54897;SDS011;40800;52.704;6.398;2023-04-09T03:01:26;67.35;;;60.90;;
54897;SDS011;40800;52.704;6.398;2023-04-09T03:03:51;69.18;;;62.08;;
54897;SDS011;40800;52.704;6.398;2023-04-09T03:06:17;69.22;;;62.47;;
54897;SDS011;40800;52.704;6.398;2023-04-09T03:08:43;70.65;;;63.58;;
54897;SDS011;40800;52.704;6.398;2023-04-09T03:11:08;71.35;;;64.10;;
54897;SDS011;40800;52.704;6.398;2023-04-09T03:13:34;70.70;;;63.38;;
54897;SDS011;40800;52.704;6.398;2023-04-09T03:15:59;69.97;;;63.10;;
54897;SDS011;40800;52.704;6.398;2023-04-09T03:18:25;72.15;;;64.93;;
54897;SDS011;40800;52.704;6.398;2023-04-09T03:20:50;72.15;;;64.90;;
54897;SDS011;40800;52.704;6.398;2023-04-09T03:23:16;70.85;;;63.65;;
54897;SDS011;40800;52.704;6.398;2023-04-09T03:25:42;70.50;;;63.50;;
54897;SDS011;40800;52.704;6.398;2023-04-09T03:28:07;70.35;;;63.00;;
54897;SDS011;40800;52.704;6.398;2023-04-09T03:30:33;72.95;;;65.55;;
54897;SDS011;40800;52.704;6.398;2023-04-09T03:32:59;71.55;;;64.65;;
54897;SDS011;40800;52.704;6.398;2023-04-09T03:35:24;72.45;;;65.20;;
54897;SDS011;40800;52.704;6.398;2023-04-09T03:37:50;71.60;;;64.45;;
54897;SDS011;40800;52.704;6.398;2023-04-09T03:40:15;73.25;;;65.82;;
54897;SDS011;40800;52.704;6.398;2023-04-09T03:42:41;71.45;;;64.28;;
54897;SDS011;40800;52.704;6.398;2023-04-09T03:45:07;72.03;;;64.65;;
54897;SDS011;40800;52.704;6.398;2023-04-09T03:47:33;71.05;;;64.03;;
54897;SDS011;40800;52.704;6.398;2023-04-09T03:49:59;74.97;;;67.03;;
54897;SDS011;40800;52.704;6.398;2023-04-09T03:52:25;74.43;;;66.90;;
54897;SDS011;40800;52.704;6.398;2023-04-09T03:54:50;74.20;;;66.68;;
54897;SDS011;40800;52.704;6.398;2023-04-09T03:57:16;73.57;;;66.32;;
54897;SDS011;40800;52.704;6.398;2023-04-09T03:59:41;75.20;;;67.80;;
54897;SDS011;40800;52.704;6.398;2023-04-09T04:02:07;78.47;;;70.82;;
54897;SDS011;40800;52.704;6.398;2023-04-09T04:04:32;77.18;;;69.55;;
54897;SDS011;40800;52.704;6.398;2023-04-09T04:06:58;77.95;;;70.05;;
54897;SDS011;40800;52.704;6.398;2023-04-09T04:09:23;74.03;;;66.63;;
54897;SDS011;40800;52.704;6.398;2023-04-09T04:11:49;76.68;;;69.10;;
54897;SDS011;40800;52.704;6.398;2023-04-09T04:14:15;75.57;;;67.93;;
54897;SDS011;40800;52.704;6.398;2023-04-09T04:16:40;77.88;;;69.85;;
54897;SDS011;40800;52.704;6.398;2023-04-09T04:19:06;74.25;;;66.85;;
54897;SDS011;40800;52.704;6.398;2023-04-09T04:21:31;77.15;;;69.68;;
54897;SDS011;40800;52.704;6.398;2023-04-09T04:23:57;75.32;;;67.65;;
54897;SDS011;40800;52.704;6.398;2023-04-09T04:26:22;74.30;;;67.07;;
54897;SDS011;40800;52.704;6.398;2023-04-09T04:28:48;73.68;;;66.63;;
54897;SDS011;40800;52.704;6.398;2023-04-09T04:31:14;76.32;;;69.18;;
54897;SDS011;40800;52.704;6.398;2023-04-09T04:33:40;72.97;;;65.43;;
54897;SDS011;40800;52.704;6.398;2023-04-09T04:36:07;71.88;;;64.65;;
54897;SDS011;40800;52.704;6.398;2023-04-09T04:38:34;70.95;;;64.05;;
54897;SDS011;40800;52.704;6.398;2023-04-09T04:41:01;72.85;;;65.63;;
54897;SDS011;40800;52.704;6.398;2023-04-09T04:43:27;71.93;;;65.03;;
54897;SDS011;40800;52.704;6.398;2023-04-09T04:45:53;73.45;;;66.05;;
54897;SDS011;40800;52.704;6.398;2023-04-09T04:48:18;71.55;;;64.45;;
54897;SDS011;40800;52.704;6.398;2023-04-09T04:50:44;73.95;;;66.45;;
54897;SDS011;40800;52.704;6.398;2023-04-09T04:53:10;72.50;;;65.53;;
54897;SDS011;40800;52.704;6.398;2023-04-09T04:55:36;72.82;;;65.53;;
54897;SDS011;40800;52.704;6.398;2023-04-09T04:58:03;73.75;;;66.82;;
54897;SDS011;40800;52.704;6.398;2023-04-09T05:00:29;72.95;;;66.03;;
54897;SDS011;40800;52.704;6.398;2023-04-09T05:02:55;70.63;;;64.00;;
54897;SDS011;40800;52.704;6.398;2023-04-09T05:05:21;71.22;;;64.28;;
54897;SDS011;40800;52.704;6.398;2023-04-09T05:07:46;72.03;;;65.03;;
54897;SDS011;40800;52.704;6.398;2023-04-09T05:10:12;73.93;;;66.55;;
54897;SDS011;40800;52.704;6.398;2023-04-09T05:12:37;72.63;;;65.57;;
54897;SDS011;40800;52.704;6.398;2023-04-09T05:15:03;72.18;;;65.00;;
54897;SDS011;40800;52.704;6.398;2023-04-09T05:17:29;72.68;;;65.65;;
54897;SDS011;40800;52.704;6.398;2023-04-09T05:19:55;73.28;;;66.07;;
54897;SDS011;40800;52.704;6.398;2023-04-09T05:22:22;71.55;;;64.53;;
54897;SDS011;40800;52.704;6.398;2023-04-09T05:24:47;73.70;;;66.18;;
54897;SDS011;40800;52.704;6.398;2023-04-09T05:27:13;73.32;;;66.15;;
54897;SDS011;40800;52.704;6.398;2023-04-09T05:29:39;73.43;;;66.22;;
54897;SDS011;40800;52.704;6.398;2023-04-09T05:32:04;72.50;;;65.32;;
54897;SDS011;40800;52.704;6.398;2023-04-09T05:34:30;70.47;;;63.60;;
54897;SDS011;40800;52.704;6.398;2023-04-09T05:36:56;71.43;;;64.40;;
54897;SDS011;40800;52.704;6.398;2023-04-09T05:39:22;69.90;;;63.22;;
54897;SDS011;40800;52.704;6.398;2023-04-09T05:41:47;70.97;;;64.10;;
54897;SDS011;40800;52.704;6.398;2023-04-09T05:44:13;70.65;;;63.80;;
54897;SDS011;40800;52.704;6.398;2023-04-09T05:46:38;69.13;;;62.47;;
54897;SDS011;40800;52.704;6.398;2023-04-09T05:49:04;68.97;;;62.05;;
54897;SDS011;40800;52.704;6.398;2023-04-09T05:51:30;68.38;;;61.67;;
54897;SDS011;40800;52.704;6.398;2023-04-09T05:53:55;67.88;;;61.10;;
54897;SDS011;40800;52.704;6.398;2023-04-09T05:56:21;66.78;;;60.50;;
54897;SDS011;40800;52.704;6.398;2023-04-09T05:58:47;68.68;;;62.05;;
54897;SDS011;40800;52.704;6.398;2023-04-09T06:01:13;66.68;;;60.17;;
54897;SDS011;40800;52.704;6.398;2023-04-09T06:03:39;66.85;;;60.38;;
54897;SDS011;40800;52.704;6.398;2023-04-09T06:06:05;66.30;;;59.80;;
54897;SDS011;40800;52.704;6.398;2023-04-09T06:08:31;63.75;;;57.45;;
54897;SDS011;40800;52.704;6.398;2023-04-09T06:10:56;64.18;;;57.90;;
54897;SDS011;40800;52.704;6.398;2023-04-09T06:13:22;64.65;;;58.40;;
54897;SDS011;40800;52.704;6.398;2023-04-09T06:15:48;61.08;;;55.28;;
54897;SDS011;40800;52.704;6.398;2023-04-09T06:18:14;60.22;;;54.40;;
54897;SDS011;40800;52.704;6.398;2023-04-09T06:20:39;61.22;;;55.10;;
54897;SDS011;40800;52.704;6.398;2023-04-09T06:23:05;60.47;;;54.58;;
54897;SDS011;40800;52.704;6.398;2023-04-09T06:25:31;61.47;;;55.28;;
54897;SDS011;40800;52.704;6.398;2023-04-09T06:27:56;63.13;;;56.83;;
54897;SDS011;40800;52.704;6.398;2023-04-09T06:30:22;61.28;;;55.28;;
54897;SDS011;40800;52.704;6.398;2023-04-09T06:32:48;62.25;;;56.25;;
54897;SDS011;40800;52.704;6.398;2023-04-09T06:35:14;62.60;;;56.55;;
54897;SDS011;40800;52.704;6.398;2023-04-09T06:37:40;64.03;;;57.65;;
54897;SDS011;40800;52.704;6.398;2023-04-09T06:40:06;62.33;;;56.28;;
54897;SDS011;40800;52.704;6.398;2023-04-09T06:42:32;59.60;;;53.90;;
54897;SDS011;40800;52.704;6.398;2023-04-09T06:44:58;58.42;;;52.92;;
54897;SDS011;40800;52.704;6.398;2023-04-09T06:47:23;56.75;;;51.28;;
54897;SDS011;40800;52.704;6.398;2023-04-09T06:49:49;59.17;;;53.38;;
54897;SDS011;40800;52.704;6.398;2023-04-09T06:52:15;58.45;;;52.97;;
54897;SDS011;40800;52.704;6.398;2023-04-09T06:54:40;58.75;;;53.00;;
54897;SDS011;40800;52.704;6.398;2023-04-09T06:57:06;59.13;;;53.50;;
54897;SDS011;40800;52.704;6.398;2023-04-09T06:59:32;57.00;;;51.50;;
54897;SDS011;40800;52.704;6.398;2023-04-09T07:01:58;56.75;;;51.22;;
54897;SDS011;40800;52.704;6.398;2023-04-09T07:04:24;55.80;;;50.28;;
54897;SDS011;40800;52.704;6.398;2023-04-09T07:06:51;56.10;;;50.57;;
54897;SDS011;40800;52.704;6.398;2023-04-09T07:09:18;57.38;;;51.40;;
54897;SDS011;40800;52.704;6.398;2023-04-09T07:11:44;57.28;;;51.33;;
54897;SDS011;40800;52.704;6.398;2023-04-09T07:14:10;57.30;;;51.40;;
54897;SDS011;40800;52.704;6.398;2023-04-09T07:16:35;55.60;;;50.28;;
54897;SDS011;40800;52.704;6.398;2023-04-09T07:19:01;56.38;;;50.92;;
54897;SDS011;40800;52.704;6.398;2023-04-09T07:21:27;55.58;;;50.28;;
54897;SDS011;40800;52.704;6.398;2023-04-09T07:23:53;52.63;;;47.58;;
54897;SDS011;40800;52.704;6.398;2023-04-09T07:26:18;54.67;;;49.15;;
54897;SDS011;40800;52.704;6.398;2023-04-09T07:28:44;53.72;;;48.58;;
54897;SDS011;40800;52.704;6.398;2023-04-09T07:31:10;52.90;;;47.47;;
54897;SDS011;40800;52.704;6.398;2023-04-09T07:33:35;52.78;;;47.67;;
54897;SDS011;40800;52.704;6.398;2023-04-09T07:36:01;53.53;;;48.22;;
54897;SDS011;40800;52.704;6.398;2023-04-09T07:38:30;52.22;;;46.95;;
54897;SDS011;40800;52.704;6.398;2023-04-09T07:40:56;50.28;;;45.28;;
54897;SDS011;40800;52.704;6.398;2023-04-09T07:43:22;50.93;;;45.83;;
54897;SDS011;40800;52.704;6.398;2023-04-09T07:45:48;48.67;;;43.83;;
54897;SDS011;40800;52.704;6.398;2023-04-09T07:48:15;50.47;;;45.38;;
54897;SDS011;40800;52.704;6.398;2023-04-09T07:50:41;47.75;;;43.05;;
54897;SDS011;40800;52.704;6.398;2023-04-09T07:53:08;46.08;;;41.55;;
54897;SDS011;40800;52.704;6.398;2023-04-09T07:55:35;46.83;;;42.28;;
54897;SDS011;40800;52.704;6.398;2023-04-09T07:58:01;46.80;;;42.10;;
54897;SDS011;40800;52.704;6.398;2023-04-09T08:00:28;47.42;;;42.78;;
54897;SDS011;40800;52.704;6.398;2023-04-09T08:02:53;46.22;;;41.50;;
54897;SDS011;40800;52.704;6.398;2023-04-09T08:05:19;46.92;;;42.03;;
54897;SDS011;40800;52.704;6.398;2023-04-09T08:07:45;45.85;;;41.38;;
54897;SDS011;40800;52.704;6.398;2023-04-09T08:10:10;45.38;;;40.88;;
54897;SDS011;40800;52.704;6.398;2023-04-09T08:12:39;45.45;;;40.92;;
54897;SDS011;40800;52.704;6.398;2023-04-09T08:15:05;46.75;;;42.13;;
54897;SDS011;40800;52.704;6.398;2023-04-09T08:17:31;48.00;;;43.13;;
54897;SDS011;40800;52.704;6.398;2023-04-09T08:19:56;46.55;;;41.85;;
54897;SDS011;40800;52.704;6.398;2023-04-09T08:22:22;46.60;;;41.72;;
54897;SDS011;40800;52.704;6.398;2023-04-09T08:24:51;46.45;;;41.78;;
54897;SDS011;40800;52.704;6.398;2023-04-09T08:27:17;48.75;;;43.78;;
54897;SDS011;40800;52.704;6.398;2023-04-09T08:29:43;48.33;;;43.33;;
54897;SDS011;40800;52.704;6.398;2023-04-09T08:32:09;47.17;;;42.30;;
54897;SDS011;40800;52.704;6.398;2023-04-09T08:34:35;47.20;;;42.35;;
54897;SDS011;40800;52.704;6.398;2023-04-09T08:37:01;46.10;;;41.50;;
54897;SDS011;40800;52.704;6.398;2023-04-09T08:39:27;46.50;;;41.80;;
54897;SDS011;40800;52.704;6.398;2023-04-09T08:41:53;45.22;;;40.75;;
54897;SDS011;40800;52.704;6.398;2023-04-09T08:44:27;46.90;;;42.15;;
54897;SDS011;40800;52.704;6.398;2023-04-09T08:46:53;45.08;;;40.47;;
54897;SDS011;40800;52.704;6.398;2023-04-09T08:49:19;45.17;;;40.38;;
54897;SDS011;40800;52.704;6.398;2023-04-09T08:51:45;45.00;;;40.22;;
54897;SDS011;40800;52.704;6.398;2023-04-09T08:54:13;45.20;;;40.47;;
54897;SDS011;40800;52.704;6.398;2023-04-09T08:56:41;42.85;;;38.22;;
54897;SDS011;40800;52.704;6.398;2023-04-09T08:59:08;42.30;;;37.78;;
54897;SDS011;40800;52.704;6.398;2023-04-09T09:06:28;39.58;;;35.28;;
54897;SDS011;40800;52.704;6.398;2023-04-09T09:09:00;39.08;;;34.92;;
54897;SDS011;40800;52.704;6.398;2023-04-09T09:11:26;38.60;;;34.03;;
54897;SDS011;40800;52.704;6.398;2023-04-09T09:14:07;38.33;;;34.33;;
54897;SDS011;40800;52.704;6.398;2023-04-09T09:16:35;39.47;;;34.80;;
54897;SDS011;40800;52.704;6.398;2023-04-09T09:19:07;38.80;;;34.50;;
54897;SDS011;40800;52.704;6.398;2023-04-09T09:21:57;39.13;;;34.92;;
54897;SDS011;40800;52.704;6.398;2023-04-09T09:24:24;40.25;;;34.42;;
54897;SDS011;40800;52.704;6.398;2023-04-09T09:26:50;37.67;;;33.53;;
54897;SDS011;40800;52.704;6.398;2023-04-09T09:29:16;37.87;;;33.87;;
54897;SDS011;40800;52.704;6.398;2023-04-09T09:34:16;36.92;;;32.92;;
54897;SDS011;40800;52.704;6.398;2023-04-09T09:36:43;36.70;;;32.40;;
54897;SDS011;40800;52.704;6.398;2023-04-09T09:39:09;36.28;;;32.40;;
54897;SDS011;40800;52.704;6.398;2023-04-09T09:44:02;38.00;;;33.47;;
54897;SDS011;40800;52.704;6.398;2023-04-09T09:46:33;37.58;;;33.45;;
54897;SDS011;40800;52.704;6.398;2023-04-09T09:48:59;36.67;;;32.72;;
54897;SDS011;40800;52.704;6.398;2023-04-09T09:51:25;37.55;;;33.55;;
54897;SDS011;40800;52.704;6.398;2023-04-09T09:56:22;36.15;;;31.60;;
54897;SDS011;40800;52.704;6.398;2023-04-09T09:59:12;36.38;;;32.05;;
54897;SDS011;40800;52.704;6.398;2023-04-09T10:01:47;35.58;;;31.83;;
54897;SDS011;40800;52.704;6.398;2023-04-09T10:04:18;35.53;;;31.63;;
54897;SDS011;40800;52.704;6.398;2023-04-09T10:06:45;32.78;;;29.10;;
54897;SDS011;40800;52.704;6.398;2023-04-09T10:09:12;29.50;;;25.85;;
54897;SDS011;40800;52.704;6.398;2023-04-09T10:11:38;31.25;;;25.73;;
54897;SDS011;40800;52.704;6.398;2023-04-09T10:14:06;31.55;;;24.75;;
54897;SDS011;40800;52.704;6.398;2023-04-09T10:16:32;31.40;;;25.13;;
54897;SDS011;40800;52.704;6.398;2023-04-09T10:18:59;34.53;;;24.33;;
54897;SDS011;40800;52.704;6.398;2023-04-09T10:21:30;32.42;;;25.70;;
54897;SDS011;40800;52.704;6.398;2023-04-09T10:24:17;30.20;;;25.02;;
54897;SDS011;40800;52.704;6.398;2023-04-09T10:26:43;31.15;;;24.65;;
54897;SDS011;40800;52.704;6.398;2023-04-09T10:29:12;29.00;;;24.58;;
54897;SDS011;40800;52.704;6.398;2023-04-09T10:31:46;29.08;;;24.13;;
54897;SDS011;40800;52.704;6.398;2023-04-09T10:34:39;30.83;;;23.75;;
54897;SDS011;40800;52.704;6.398;2023-04-09T10:37:07;28.30;;;23.58;;
54897;SDS011;40800;52.704;6.398;2023-04-09T10:39:36;29.38;;;23.83;;
54897;SDS011;40800;52.704;6.398;2023-04-09T10:42:11;28.87;;;22.80;;
54897;SDS011;40800;52.704;6.398;2023-04-09T10:45:10;27.90;;;23.67;;
54897;SDS011;40800;52.704;6.398;2023-04-09T10:47:38;28.95;;;24.63;;
54897;SDS011;40800;52.704;6.398;2023-04-09T10:50:12;27.63;;;23.40;;
54897;SDS011;40800;52.704;6.398;2023-04-09T10:52:41;28.83;;;24.60;;
54897;SDS011;40800;52.704;6.398;2023-04-09T10:57:34;30.42;;;25.50;;
54897;SDS011;40800;52.704;6.398;2023-04-09T10:59:59;27.15;;;23.30;;
54897;SDS011;40800;52.704;6.398;2023-04-09T11:05:17;29.70;;;24.70;;
54897;SDS011;40800;52.704;6.398;2023-04-09T11:07:53;30.77;;;25.00;;
54897;SDS011;40800;52.704;6.398;2023-04-09T11:10:28;29.00;;;23.58;;
54897;SDS011;40800;52.704;6.398;2023-04-09T11:12:54;27.85;;;23.33;;
54897;SDS011;40800;52.704;6.398;2023-04-09T11:15:20;27.50;;;23.38;;
54897;SDS011;40800;52.704;6.398;2023-04-09T11:17:46;27.60;;;24.10;;
54897;SDS011;40800;52.704;6.398;2023-04-09T11:20:13;26.48;;;22.83;;
54897;SDS011;40800;52.704;6.398;2023-04-09T11:22:50;25.27;;;21.02;;
54897;SDS011;40800;52.704;6.398;2023-04-09T11:25:18;20.30;;;18.08;;
54897;SDS011;40800;52.704;6.398;2023-04-09T11:27:49;19.35;;;17.10;;
54897;SDS011;40800;52.704;6.398;2023-04-09T11:30:15;20.50;;;18.30;;
54897;SDS011;40800;52.704;6.398;2023-04-09T11:32:41;18.92;;;15.90;;
54897;SDS011;40800;52.704;6.398;2023-04-09T11:35:13;21.85;;;16.75;;
54897;SDS011;40800;52.704;6.398;2023-04-09T11:37:41;20.15;;;17.15;;
54897;SDS011;40800;52.704;6.398;2023-04-09T11:42:43;18.85;;;16.55;;
54897;SDS011;40800;52.704;6.398;2023-04-09T11:47:36;18.58;;;15.68;;
54897;SDS011;40800;52.704;6.398;2023-04-09T11:50:08;18.02;;;16.08;;
54897;SDS011;40800;52.704;6.398;2023-04-09T11:52:35;19.45;;;16.23;;
54897;SDS011;40800;52.704;6.398;2023-04-09T11:55:01;19.77;;;17.67;;
54897;SDS011;40800;52.704;6.398;2023-04-09T11:57:46;19.92;;;17.73;;
54897;SDS011;40800;52.704;6.398;2023-04-09T12:00:15;23.35;;;18.35;;
54897;SDS011;40800;52.704;6.398;2023-04-09T12:02:43;19.45;;;16.25;;
54897;SDS011;40800;52.704;6.398;2023-04-09T12:05:23;19.02;;;16.50;;
54897;SDS011;40800;52.704;6.398;2023-04-09T12:07:56;19.48;;;16.25;;
54897;SDS011;40800;52.704;6.398;2023-04-09T12:10:29;20.98;;;16.73;;
54897;SDS011;40800;52.704;6.398;2023-04-09T12:13:00;19.63;;;16.83;;
54897;SDS011;40800;52.704;6.398;2023-04-09T12:15:30;21.00;;;16.55;;
54897;SDS011;40800;52.704;6.398;2023-04-09T12:17:57;22.30;;;16.30;;
54897;SDS011;40800;52.704;6.398;2023-04-09T12:23:04;20.60;;;15.38;;
54897;SDS011;40800;52.704;6.398;2023-04-09T12:25:32;18.60;;;15.25;;
54897;SDS011;40800;52.704;6.398;2023-04-09T12:27:59;17.83;;;15.82;;
54897;SDS011;40800;52.704;6.398;2023-04-09T12:30:25;18.35;;;15.77;;
54897;SDS011;40800;52.704;6.398;2023-04-09T12:32:51;18.73;;;15.52;;
54897;SDS011;40800;52.704;6.398;2023-04-09T12:35:17;22.08;;;16.42;;
54897;SDS011;40800;52.704;6.398;2023-04-09T12:37:43;19.38;;;15.20;;
54897;SDS011;40800;52.704;6.398;2023-04-09T12:40:09;17.25;;;14.65;;
54897;SDS011;40800;52.704;6.398;2023-04-09T12:42:38;18.42;;;14.82;;
54897;SDS011;40800;52.704;6.398;2023-04-09T12:45:04;19.25;;;16.67;;
54897;SDS011;40800;52.704;6.398;2023-04-09T12:47:31;18.48;;;15.40;;
54897;SDS011;40800;52.704;6.398;2023-04-09T12:49:56;18.05;;;15.38;;
54897;SDS011;40800;52.704;6.398;2023-04-09T12:52:22;19.42;;;15.80;;
54897;SDS011;40800;52.704;6.398;2023-04-09T12:54:48;18.48;;;15.65;;
54897;SDS011;40800;52.704;6.398;2023-04-09T12:57:15;19.13;;;15.85;;
54897;SDS011;40800;52.704;6.398;2023-04-09T12:59:40;18.33;;;15.70;;
54897;SDS011;40800;52.704;6.398;2023-04-09T13:02:06;18.98;;;15.45;;
54897;SDS011;40800;52.704;6.398;2023-04-09T13:04:32;17.88;;;15.68;;
54897;SDS011;40800;52.704;6.398;2023-04-09T13:06:57;18.08;;;15.30;;
54897;SDS011;40800;52.704;6.398;2023-04-09T13:09:23;20.27;;;16.33;;
54897;SDS011;40800;52.704;6.398;2023-04-09T13:11:49;17.60;;;14.98;;
54897;SDS011;40800;52.704;6.398;2023-04-09T13:14:15;17.98;;;15.02;;
54897;SDS011;40800;52.704;6.398;2023-04-09T13:16:41;17.98;;;15.13;;
54897;SDS011;40800;52.704;6.398;2023-04-09T13:19:07;18.60;;;15.32;;
54897;SDS011;40800;52.704;6.398;2023-04-09T13:21:34;19.15;;;15.77;;
54897;SDS011;40800;52.704;6.398;2023-04-09T13:24:00;19.27;;;16.40;;
54897;SDS011;40800;52.704;6.398;2023-04-09T13:26:26;19.35;;;15.82;;
54897;SDS011;40800;52.704;6.398;2023-04-09T13:28:52;16.00;;;13.77;;
54897;SDS011;40800;52.704;6.398;2023-04-09T13:31:17;16.15;;;13.65;;
54897;SDS011;40800;52.704;6.398;2023-04-09T13:33:43;15.85;;;13.77;;
54897;SDS011;40800;52.704;6.398;2023-04-09T13:36:09;24.25;;;13.07;;
54897;SDS011;40800;52.704;6.398;2023-04-09T13:38:36;15.90;;;13.15;;
54897;SDS011;40800;52.704;6.398;2023-04-09T13:41:01;16.75;;;12.70;;
54897;SDS011;40800;52.704;6.398;2023-04-09T13:43:27;15.82;;;12.93;;
54897;SDS011;40800;52.704;6.398;2023-04-09T13:45:53;17.10;;;13.65;;
54897;SDS011;40800;52.704;6.398;2023-04-09T13:48:19;15.30;;;13.18;;
54897;SDS011;40800;52.704;6.398;2023-04-09T13:50:45;16.45;;;13.15;;
54897;SDS011;40800;52.704;6.398;2023-04-09T13:53:11;14.90;;;12.82;;
54897;SDS011;40800;52.704;6.398;2023-04-09T13:55:37;15.45;;;13.07;;
54897;SDS011;40800;52.704;6.398;2023-04-09T13:58:03;17.13;;;14.05;;
54897;SDS011;40800;52.704;6.398;2023-04-09T14:00:29;15.10;;;12.68;;
54897;SDS011;40800;52.704;6.398;2023-04-09T14:02:55;13.07;;;10.98;;
54897;SDS011;40800;52.704;6.398;2023-04-09T14:05:21;14.10;;;11.55;;
54897;SDS011;40800;52.704;6.398;2023-04-09T14:07:46;13.50;;;10.93;;
54897;SDS011;40800;52.704;6.398;2023-04-09T14:10:12;11.93;;;10.32;;
54897;SDS011;40800;52.704;6.398;2023-04-09T14:12:37;11.25;;;10.05;;
54897;SDS011;40800;52.704;6.398;2023-04-09T14:15:03;12.70;;;10.40;;
54897;SDS011;40800;52.704;6.398;2023-04-09T14:17:29;11.88;;;9.95;;
54897;SDS011;40800;52.704;6.398;2023-04-09T14:19:55;12.50;;;10.30;;
54897;SDS011;40800;52.704;6.398;2023-04-09T14:22:23;12.50;;;10.10;;
54897;SDS011;40800;52.704;6.398;2023-04-09T14:24:49;11.57;;;10.10;;
54897;SDS011;40800;52.704;6.398;2023-04-09T14:27:15;12.68;;;11.15;;
54897;SDS011;40800;52.704;6.398;2023-04-09T14:29:40;12.48;;;10.80;;
54897;SDS011;40800;52.704;6.398;2023-04-09T14:32:06;11.35;;;10.05;;
54897;SDS011;40800;52.704;6.398;2023-04-09T14:34:32;10.90;;;9.52;;
54897;SDS011;40800;52.704;6.398;2023-04-09T14:36:58;9.88;;;8.88;;
54897;SDS011;40800;52.704;6.398;2023-04-09T14:39:23;12.90;;;10.38;;
54897;SDS011;40800;52.704;6.398;2023-04-09T14:41:49;12.18;;;10.02;;
54897;SDS011;40800;52.704;6.398;2023-04-09T14:44:15;12.30;;;11.00;;
54897;SDS011;40800;52.704;6.398;2023-04-09T14:46:41;12.05;;;9.85;;
54897;SDS011;40800;52.704;6.398;2023-04-09T14:49:07;11.77;;;10.27;;
54897;SDS011;40800;52.704;6.398;2023-04-09T14:51:33;11.85;;;10.20;;
54897;SDS011;40800;52.704;6.398;2023-04-09T14:53:58;11.02;;;9.80;;
54897;SDS011;40800;52.704;6.398;2023-04-09T14:56:25;11.95;;;10.50;;